sensor_id;sensor_type;location;lat;lon;timestamp;P1;durP1;ratioP1;P2;durP2;ratioP2
49834;SDS011;35729;52.090;13.162;2023-12-14T00:00:28;42.90;;;21.63;;
49834;SDS011;35729;52.090;13.162;2023-12-14T00:02:56;42.47;;;19.92;;
49834;SDS011;35729;52.090;13.162;2023-12-14T00:05:26;41.75;;;21.08;;
49834;SDS011;35729;52.090;13.162;2023-12-14T00:07:54;38.83;;;19.92;;
49834;SDS011;35729;52.090;13.162;2023-12-14T00:10:25;34.63;;;18.05;;
49834;SDS011;35729;52.090;13.162;2023-12-14T00:12:54;30.02;;;17.00;;
49834;SDS011;35729;52.090;13.162;2023-12-14T00:15:22;29.67;;;16.38;;
49834;SDS011;35729;52.090;13.162;2023-12-14T00:17:51;32.15;;;16.15;;
49834;SDS011;35729;52.090;13.162;2023-12-14T00:20:19;30.17;;;17.33;;
49834;SDS011;35729;52.090;13.162;2023-12-14T00:22:48;28.30;;;17.77;;
49834;SDS011;35729;52.090;13.162;2023-12-14T00:25:16;29.75;;;17.67;;
49834;SDS011;35729;52.090;13.162;2023-12-14T00:27:47;29.17;;;17.35;;
49834;SDS011;35729;52.090;13.162;2023-12-14T00:30:16;35.50;;;18.25;;
49834;SDS011;35729;52.090;13.162;2023-12-14T00:32:44;31.70;;;17.58;;
49834;SDS011;35729;52.090;13.162;2023-12-14T00:35:19;36.13;;;18.02;;
49834;SDS011;35729;52.090;13.162;2023-12-14T00:37:48;28.83;;;16.60;;
49834;SDS011;35729;52.090;13.162;2023-12-14T00:40:16;26.08;;;15.15;;
49834;SDS011;35729;52.090;13.162;2023-12-14T00:42:47;27.02;;;16.05;;
49834;SDS011;35729;52.090;13.162;2023-12-14T00:45:16;30.83;;;16.70;;
49834;SDS011;35729;52.090;13.162;2023-12-14T00:47:44;29.02;;;16.27;;
49834;SDS011;35729;52.090;13.162;2023-12-14T00:50:13;32.60;;;17.00;;
49834;SDS011;35729;52.090;13.162;2023-12-14T00:52:41;30.85;;;16.42;;
49834;SDS011;35729;52.090;13.162;2023-12-14T00:55:16;30.40;;;16.85;;
49834;SDS011;35729;52.090;13.162;2023-12-14T00:57:47;31.90;;;16.58;;
49834;SDS011;35729;52.090;13.162;2023-12-14T01:00:16;28.77;;;17.20;;
49834;SDS011;35729;52.090;13.162;2023-12-14T01:02:46;29.10;;;16.27;;
49834;SDS011;35729;52.090;13.162;2023-12-14T01:05:14;23.85;;;14.77;;
49834;SDS011;35729;52.090;13.162;2023-12-14T01:07:43;28.25;;;15.27;;
49834;SDS011;35729;52.090;13.162;2023-12-14T01:10:18;25.08;;;15.20;;
49834;SDS011;35729;52.090;13.162;2023-12-14T01:12:50;25.92;;;15.07;;
49834;SDS011;35729;52.090;13.162;2023-12-14T01:15:18;24.85;;;15.45;;
49834;SDS011;35729;52.090;13.162;2023-12-14T01:17:46;24.67;;;13.93;;
49834;SDS011;35729;52.090;13.162;2023-12-14T01:20:15;24.15;;;15.00;;
49834;SDS011;35729;52.090;13.162;2023-12-14T01:22:43;28.30;;;16.10;;
49834;SDS011;35729;52.090;13.162;2023-12-14T01:25:12;27.50;;;16.75;;
49834;SDS011;35729;52.090;13.162;2023-12-14T01:27:40;28.35;;;16.85;;
49834;SDS011;35729;52.090;13.162;2023-12-14T01:30:12;33.85;;;17.88;;
49834;SDS011;35729;52.090;13.162;2023-12-14T01:32:40;27.42;;;17.75;;
49834;SDS011;35729;52.090;13.162;2023-12-14T01:35:09;30.25;;;17.38;;
49834;SDS011;35729;52.090;13.162;2023-12-14T01:37:37;30.85;;;18.35;;
49834;SDS011;35729;52.090;13.162;2023-12-14T01:40:06;28.73;;;18.02;;
49834;SDS011;35729;52.090;13.162;2023-12-14T01:42:36;31.48;;;18.00;;
49834;SDS011;35729;52.090;13.162;2023-12-14T01:45:05;29.65;;;17.30;;
49834;SDS011;35729;52.090;13.162;2023-12-14T01:47:37;30.30;;;16.85;;
49834;SDS011;35729;52.090;13.162;2023-12-14T01:50:05;26.98;;;16.58;;
49834;SDS011;35729;52.090;13.162;2023-12-14T01:52:34;30.15;;;17.25;;
49834;SDS011;35729;52.090;13.162;2023-12-14T01:55:03;26.55;;;16.20;;
49834;SDS011;35729;52.090;13.162;2023-12-14T01:57:32;29.17;;;16.95;;
49834;SDS011;35729;52.090;13.162;2023-12-14T02:00:01;28.10;;;16.95;;
49834;SDS011;35729;52.090;13.162;2023-12-14T02:02:30;29.65;;;17.17;;
49834;SDS011;35729;52.090;13.162;2023-12-14T02:05:03;27.55;;;16.90;;
49834;SDS011;35729;52.090;13.162;2023-12-14T02:07:38;27.50;;;16.05;;
49834;SDS011;35729;52.090;13.162;2023-12-14T02:10:07;26.50;;;15.57;;
49834;SDS011;35729;52.090;13.162;2023-12-14T02:12:36;28.23;;;16.35;;
49834;SDS011;35729;52.090;13.162;2023-12-14T02:15:05;23.92;;;15.25;;
49834;SDS011;35729;52.090;13.162;2023-12-14T02:17:34;23.90;;;14.98;;
49834;SDS011;35729;52.090;13.162;2023-12-14T02:20:06;24.17;;;14.43;;
49834;SDS011;35729;52.090;13.162;2023-12-14T02:22:47;19.92;;;13.80;;
49834;SDS011;35729;52.090;13.162;2023-12-14T02:25:17;24.02;;;15.82;;
49834;SDS011;35729;52.090;13.162;2023-12-14T02:27:45;28.48;;;15.77;;
49834;SDS011;35729;52.090;13.162;2023-12-14T02:30:14;24.85;;;15.15;;
49834;SDS011;35729;52.090;13.162;2023-12-14T02:32:43;25.48;;;16.13;;
49834;SDS011;35729;52.090;13.162;2023-12-14T02:35:12;25.17;;;17.10;;
49834;SDS011;35729;52.090;13.162;2023-12-14T02:37:43;27.02;;;17.00;;
49834;SDS011;35729;52.090;13.162;2023-12-14T02:40:11;29.08;;;16.83;;
49834;SDS011;35729;52.090;13.162;2023-12-14T02:42:40;29.95;;;17.88;;
49834;SDS011;35729;52.090;13.162;2023-12-14T02:45:09;32.22;;;17.77;;
49834;SDS011;35729;52.090;13.162;2023-12-14T02:47:38;30.42;;;16.42;;
49834;SDS011;35729;52.090;13.162;2023-12-14T02:50:07;31.92;;;17.52;;
49834;SDS011;35729;52.090;13.162;2023-12-14T02:52:36;36.85;;;19.05;;
49834;SDS011;35729;52.090;13.162;2023-12-14T02:55:07;33.42;;;18.55;;
49834;SDS011;35729;52.090;13.162;2023-12-14T02:57:36;29.70;;;16.70;;
49834;SDS011;35729;52.090;13.162;2023-12-14T03:00:05;28.95;;;15.35;;
49834;SDS011;35729;52.090;13.162;2023-12-14T03:02:35;26.02;;;14.90;;
49834;SDS011;35729;52.090;13.162;2023-12-14T03:05:03;25.23;;;15.43;;
49834;SDS011;35729;52.090;13.162;2023-12-14T03:07:32;24.73;;;13.85;;
49834;SDS011;35729;52.090;13.162;2023-12-14T03:10:16;23.15;;;13.60;;
49834;SDS011;35729;52.090;13.162;2023-12-14T03:12:44;24.42;;;14.32;;
49834;SDS011;35729;52.090;13.162;2023-12-14T03:15:13;25.33;;;15.18;;
49834;SDS011;35729;52.090;13.162;2023-12-14T03:17:45;26.75;;;15.48;;
49834;SDS011;35729;52.090;13.162;2023-12-14T03:20:14;29.52;;;16.17;;
49834;SDS011;35729;52.090;13.162;2023-12-14T03:22:42;25.95;;;14.15;;
49834;SDS011;35729;52.090;13.162;2023-12-14T03:25:11;26.88;;;15.57;;
49834;SDS011;35729;52.090;13.162;2023-12-14T03:27:43;29.05;;;15.10;;
49834;SDS011;35729;52.090;13.162;2023-12-14T03:30:12;28.00;;;15.05;;
49834;SDS011;35729;52.090;13.162;2023-12-14T03:32:40;30.45;;;15.02;;
49834;SDS011;35729;52.090;13.162;2023-12-14T03:35:09;31.58;;;15.20;;
49834;SDS011;35729;52.090;13.162;2023-12-14T03:37:37;28.65;;;14.63;;
49834;SDS011;35729;52.090;13.162;2023-12-14T03:40:06;23.95;;;13.70;;
49834;SDS011;35729;52.090;13.162;2023-12-14T03:42:35;27.80;;;14.57;;
49834;SDS011;35729;52.090;13.162;2023-12-14T03:45:07;29.42;;;15.23;;
49834;SDS011;35729;52.090;13.162;2023-12-14T03:47:36;26.52;;;14.13;;
49834;SDS011;35729;52.090;13.162;2023-12-14T03:50:05;26.73;;;13.60;;
49834;SDS011;35729;52.090;13.162;2023-12-14T03:52:34;27.40;;;14.40;;
49834;SDS011;35729;52.090;13.162;2023-12-14T03:55:03;25.65;;;14.50;;
49834;SDS011;35729;52.090;13.162;2023-12-14T03:57:32;24.95;;;12.93;;
49834;SDS011;35729;52.090;13.162;2023-12-14T04:00:10;22.80;;;13.40;;
49834;SDS011;35729;52.090;13.162;2023-12-14T04:02:40;25.25;;;13.32;;
49834;SDS011;35729;52.090;13.162;2023-12-14T04:05:09;25.83;;;13.45;;
49834;SDS011;35729;52.090;13.162;2023-12-14T04:07:38;27.52;;;13.52;;
49834;SDS011;35729;52.090;13.162;2023-12-14T04:10:07;24.10;;;13.65;;
49834;SDS011;35729;52.090;13.162;2023-12-14T04:12:36;26.25;;;13.13;;
49834;SDS011;35729;52.090;13.162;2023-12-14T04:15:06;26.60;;;14.35;;
49834;SDS011;35729;52.090;13.162;2023-12-14T04:17:38;27.48;;;14.32;;
49834;SDS011;35729;52.090;13.162;2023-12-14T04:20:07;28.05;;;14.93;;
49834;SDS011;35729;52.090;13.162;2023-12-14T04:22:36;25.90;;;14.32;;
49834;SDS011;35729;52.090;13.162;2023-12-14T04:25:06;25.00;;;13.68;;
49834;SDS011;35729;52.090;13.162;2023-12-14T04:27:34;27.70;;;13.98;;
49834;SDS011;35729;52.090;13.162;2023-12-14T04:30:03;29.63;;;14.48;;
49834;SDS011;35729;52.090;13.162;2023-12-14T04:32:38;24.30;;;14.23;;
49834;SDS011;35729;52.090;13.162;2023-12-14T04:35:07;25.10;;;14.77;;
49834;SDS011;35729;52.090;13.162;2023-12-14T04:37:36;27.10;;;15.23;;
49834;SDS011;35729;52.090;13.162;2023-12-14T04:40:05;32.08;;;16.13;;
49834;SDS011;35729;52.090;13.162;2023-12-14T04:42:35;30.48;;;16.48;;
49834;SDS011;35729;52.090;13.162;2023-12-14T04:45:04;29.35;;;16.08;;
49834;SDS011;35729;52.090;13.162;2023-12-14T04:47:34;32.28;;;15.40;;
49834;SDS011;35729;52.090;13.162;2023-12-14T04:50:05;27.40;;;15.05;;
49834;SDS011;35729;52.090;13.162;2023-12-14T04:52:35;28.50;;;15.60;;
49834;SDS011;35729;52.090;13.162;2023-12-14T04:55:04;31.48;;;14.73;;
49834;SDS011;35729;52.090;13.162;2023-12-14T04:57:33;25.50;;;15.10;;
49834;SDS011;35729;52.090;13.162;2023-12-14T05:00:08;26.70;;;14.73;;
49834;SDS011;35729;52.090;13.162;2023-12-14T05:02:38;25.35;;;13.77;;
49834;SDS011;35729;52.090;13.162;2023-12-14T05:05:09;24.20;;;14.60;;
49834;SDS011;35729;52.090;13.162;2023-12-14T05:07:37;23.40;;;13.38;;
49834;SDS011;35729;52.090;13.162;2023-12-14T05:10:06;25.48;;;14.25;;
49834;SDS011;35729;52.090;13.162;2023-12-14T05:12:35;29.48;;;13.77;;
49834;SDS011;35729;52.090;13.162;2023-12-14T05:15:04;25.33;;;13.93;;
49834;SDS011;35729;52.090;13.162;2023-12-14T05:17:34;24.30;;;13.30;;
49834;SDS011;35729;52.090;13.162;2023-12-14T05:20:03;24.25;;;13.63;;
49834;SDS011;35729;52.090;13.162;2023-12-14T05:22:38;24.42;;;13.57;;
49834;SDS011;35729;52.090;13.162;2023-12-14T05:25:13;22.98;;;13.38;;
49834;SDS011;35729;52.090;13.162;2023-12-14T05:27:42;22.40;;;13.07;;
49834;SDS011;35729;52.090;13.162;2023-12-14T05:30:11;18.70;;;11.63;;
49834;SDS011;35729;52.090;13.162;2023-12-14T05:32:40;19.98;;;11.88;;
49834;SDS011;35729;52.090;13.162;2023-12-14T05:35:15;19.40;;;11.80;;
49834;SDS011;35729;52.090;13.162;2023-12-14T05:37:46;17.88;;;12.13;;
49834;SDS011;35729;52.090;13.162;2023-12-14T05:40:15;22.05;;;12.10;;
49834;SDS011;35729;52.090;13.162;2023-12-14T05:42:50;18.85;;;11.93;;
49834;SDS011;35729;52.090;13.162;2023-12-14T05:45:19;20.15;;;12.32;;
49834;SDS011;35729;52.090;13.162;2023-12-14T05:47:47;22.33;;;12.70;;
49834;SDS011;35729;52.090;13.162;2023-12-14T05:50:16;21.88;;;11.95;;
49834;SDS011;35729;52.090;13.162;2023-12-14T05:52:47;23.67;;;13.02;;
49834;SDS011;35729;52.090;13.162;2023-12-14T05:55:16;20.42;;;12.50;;
49834;SDS011;35729;52.090;13.162;2023-12-14T05:57:46;21.90;;;12.80;;
49834;SDS011;35729;52.090;13.162;2023-12-14T06:00:15;21.60;;;12.73;;
49834;SDS011;35729;52.090;13.162;2023-12-14T06:02:45;23.00;;;12.82;;
49834;SDS011;35729;52.090;13.162;2023-12-14T06:05:13;20.70;;;13.23;;
49834;SDS011;35729;52.090;13.162;2023-12-14T06:07:42;25.20;;;14.23;;
49834;SDS011;35729;52.090;13.162;2023-12-14T06:10:13;21.30;;;13.38;;
49834;SDS011;35729;52.090;13.162;2023-12-14T06:12:41;23.55;;;14.10;;
49834;SDS011;35729;52.090;13.162;2023-12-14T06:15:10;24.65;;;13.40;;
49834;SDS011;35729;52.090;13.162;2023-12-14T06:17:39;24.60;;;13.43;;
49834;SDS011;35729;52.090;13.162;2023-12-14T06:20:08;25.38;;;14.07;;
49834;SDS011;35729;52.090;13.162;2023-12-14T06:22:37;30.23;;;16.83;;
49834;SDS011;35729;52.090;13.162;2023-12-14T06:25:06;29.50;;;16.65;;
49834;SDS011;35729;52.090;13.162;2023-12-14T06:27:37;29.45;;;15.15;;
49834;SDS011;35729;52.090;13.162;2023-12-14T06:30:06;27.90;;;14.27;;
49834;SDS011;35729;52.090;13.162;2023-12-14T06:32:37;25.60;;;14.63;;
49834;SDS011;35729;52.090;13.162;2023-12-14T06:35:06;28.58;;;15.32;;
49834;SDS011;35729;52.090;13.162;2023-12-14T06:37:34;28.17;;;15.20;;
49834;SDS011;35729;52.090;13.162;2023-12-14T06:40:03;27.08;;;14.52;;
49834;SDS011;35729;52.090;13.162;2023-12-14T06:42:32;31.63;;;16.63;;
49834;SDS011;35729;52.090;13.162;2023-12-14T06:45:04;25.20;;;14.43;;
49834;SDS011;35729;52.090;13.162;2023-12-14T06:47:33;29.80;;;15.98;;
49834;SDS011;35729;52.090;13.162;2023-12-14T06:50:02;28.40;;;14.70;;
49834;SDS011;35729;52.090;13.162;2023-12-14T06:52:30;28.00;;;14.75;;
49834;SDS011;35729;52.090;13.162;2023-12-14T06:54:59;27.77;;;14.32;;
49834;SDS011;35729;52.090;13.162;2023-12-14T06:57:27;27.92;;;14.93;;
49834;SDS011;35729;52.090;13.162;2023-12-14T06:59:56;24.65;;;14.07;;
49834;SDS011;35729;52.090;13.162;2023-12-14T07:02:27;26.45;;;15.80;;
49834;SDS011;35729;52.090;13.162;2023-12-14T07:04:55;28.48;;;15.68;;
49834;SDS011;35729;52.090;13.162;2023-12-14T07:07:24;23.30;;;14.70;;
49834;SDS011;35729;52.090;13.162;2023-12-14T07:09:53;26.58;;;15.70;;
49834;SDS011;35729;52.090;13.162;2023-12-14T07:12:21;28.20;;;15.32;;
49834;SDS011;35729;52.090;13.162;2023-12-14T07:14:49;26.50;;;14.38;;
49834;SDS011;35729;52.090;13.162;2023-12-14T07:17:18;25.05;;;14.95;;
49834;SDS011;35729;52.090;13.162;2023-12-14T07:19:49;29.83;;;15.25;;
49834;SDS011;35729;52.090;13.162;2023-12-14T07:22:19;26.75;;;13.88;;
49834;SDS011;35729;52.090;13.162;2023-12-14T07:24:47;28.95;;;14.75;;
49834;SDS011;35729;52.090;13.162;2023-12-14T07:27:16;26.75;;;14.43;;
49834;SDS011;35729;52.090;13.162;2023-12-14T07:29:44;23.35;;;14.00;;
49834;SDS011;35729;52.090;13.162;2023-12-14T07:32:12;30.58;;;14.95;;
49834;SDS011;35729;52.090;13.162;2023-12-14T07:34:41;26.88;;;15.15;;
49834;SDS011;35729;52.090;13.162;2023-12-14T07:37:12;29.70;;;15.75;;
49834;SDS011;35729;52.090;13.162;2023-12-14T07:39:41;23.63;;;14.30;;
49834;SDS011;35729;52.090;13.162;2023-12-14T07:42:09;24.88;;;15.32;;
49834;SDS011;35729;52.090;13.162;2023-12-14T07:44:42;22.67;;;13.40;;
49834;SDS011;35729;52.090;13.162;2023-12-14T07:47:10;24.48;;;13.77;;
49834;SDS011;35729;52.090;13.162;2023-12-14T07:49:39;24.77;;;14.18;;
49834;SDS011;35729;52.090;13.162;2023-12-14T07:52:07;25.25;;;13.70;;
49834;SDS011;35729;52.090;13.162;2023-12-14T07:54:38;23.48;;;13.60;;
49834;SDS011;35729;52.090;13.162;2023-12-14T07:57:07;22.98;;;13.07;;
49834;SDS011;35729;52.090;13.162;2023-12-14T07:59:35;25.52;;;14.65;;
49834;SDS011;35729;52.090;13.162;2023-12-14T08:02:04;22.52;;;12.02;;
49834;SDS011;35729;52.090;13.162;2023-12-14T08:04:32;23.20;;;12.50;;
49834;SDS011;35729;52.090;13.162;2023-12-14T08:07:01;23.75;;;14.05;;
49834;SDS011;35729;52.090;13.162;2023-12-14T08:09:29;25.10;;;12.93;;
49834;SDS011;35729;52.090;13.162;2023-12-14T08:12:00;22.73;;;14.25;;
49834;SDS011;35729;52.090;13.162;2023-12-14T08:14:29;22.60;;;13.15;;
49834;SDS011;35729;52.090;13.162;2023-12-14T08:16:59;26.77;;;13.68;;
49834;SDS011;35729;52.090;13.162;2023-12-14T08:19:29;25.30;;;14.38;;
49834;SDS011;35729;52.090;13.162;2023-12-14T08:21:57;23.23;;;12.95;;
49834;SDS011;35729;52.090;13.162;2023-12-14T08:24:26;24.20;;;14.35;;
49834;SDS011;35729;52.090;13.162;2023-12-14T08:26:55;22.02;;;12.80;;
49834;SDS011;35729;52.090;13.162;2023-12-14T08:29:26;25.70;;;13.23;;
49834;SDS011;35729;52.090;13.162;2023-12-14T08:31:54;24.73;;;12.75;;
49834;SDS011;35729;52.090;13.162;2023-12-14T08:34:24;20.88;;;12.63;;
49834;SDS011;35729;52.090;13.162;2023-12-14T08:36:53;22.92;;;13.55;;
49834;SDS011;35729;52.090;13.162;2023-12-14T08:39:22;22.75;;;13.15;;
49834;SDS011;35729;52.090;13.162;2023-12-14T08:41:51;19.45;;;13.30;;
49834;SDS011;35729;52.090;13.162;2023-12-14T08:44:20;19.90;;;12.18;;
49834;SDS011;35729;52.090;13.162;2023-12-14T08:46:51;22.30;;;13.23;;
49834;SDS011;35729;52.090;13.162;2023-12-14T08:49:19;22.42;;;13.23;;
49834;SDS011;35729;52.090;13.162;2023-12-14T08:51:48;22.73;;;13.25;;
49834;SDS011;35729;52.090;13.162;2023-12-14T08:54:16;21.58;;;11.85;;
49834;SDS011;35729;52.090;13.162;2023-12-14T08:56:45;19.90;;;11.32;;
49834;SDS011;35729;52.090;13.162;2023-12-14T08:59:13;17.65;;;11.13;;
49834;SDS011;35729;52.090;13.162;2023-12-14T09:01:42;20.75;;;12.55;;
49834;SDS011;35729;52.090;13.162;2023-12-14T09:04:13;22.15;;;12.63;;
49834;SDS011;35729;52.090;13.162;2023-12-14T09:06:41;18.52;;;11.60;;
49834;SDS011;35729;52.090;13.162;2023-12-14T09:09:10;19.15;;;10.73;;
49834;SDS011;35729;52.090;13.162;2023-12-14T09:11:39;20.05;;;12.80;;
49834;SDS011;35729;52.090;13.162;2023-12-14T09:14:07;20.27;;;11.20;;
49834;SDS011;35729;52.090;13.162;2023-12-14T09:16:36;19.42;;;12.82;;
49834;SDS011;35729;52.090;13.162;2023-12-14T09:19:04;24.33;;;14.27;;
49834;SDS011;35729;52.090;13.162;2023-12-14T09:21:35;20.50;;;12.65;;
49834;SDS011;35729;52.090;13.162;2023-12-14T09:24:04;19.40;;;12.32;;
49834;SDS011;35729;52.090;13.162;2023-12-14T09:26:33;18.85;;;12.38;;
49834;SDS011;35729;52.090;13.162;2023-12-14T09:29:01;20.88;;;12.68;;
49834;SDS011;35729;52.090;13.162;2023-12-14T09:31:29;23.52;;;12.32;;
49834;SDS011;35729;52.090;13.162;2023-12-14T09:33:58;16.88;;;11.15;;
49834;SDS011;35729;52.090;13.162;2023-12-14T09:36:26;21.50;;;13.63;;
49834;SDS011;35729;52.090;13.162;2023-12-14T09:38:57;19.05;;;12.50;;
49834;SDS011;35729;52.090;13.162;2023-12-14T09:41:26;19.05;;;13.18;;
49834;SDS011;35729;52.090;13.162;2023-12-14T09:43:54;21.48;;;12.73;;
49834;SDS011;35729;52.090;13.162;2023-12-14T09:46:24;19.42;;;12.35;;
49834;SDS011;35729;52.090;13.162;2023-12-14T09:48:54;20.23;;;13.18;;
49834;SDS011;35729;52.090;13.162;2023-12-14T09:51:25;21.38;;;14.65;;
49834;SDS011;35729;52.090;13.162;2023-12-14T09:53:53;22.20;;;14.38;;
49834;SDS011;35729;52.090;13.162;2023-12-14T09:56:25;22.20;;;13.60;;
49834;SDS011;35729;52.090;13.162;2023-12-14T09:58:55;22.98;;;13.57;;
49834;SDS011;35729;52.090;13.162;2023-12-14T10:01:26;20.35;;;13.40;;
49834;SDS011;35729;52.090;13.162;2023-12-14T10:04:06;22.55;;;13.77;;
49834;SDS011;35729;52.090;13.162;2023-12-14T10:06:36;23.33;;;14.73;;
49834;SDS011;35729;52.090;13.162;2023-12-14T10:09:05;21.73;;;14.32;;
49834;SDS011;35729;52.090;13.162;2023-12-14T10:11:37;22.77;;;14.13;;
49834;SDS011;35729;52.090;13.162;2023-12-14T10:14:17;21.40;;;13.50;;
49834;SDS011;35729;52.090;13.162;2023-12-14T10:16:47;24.25;;;13.55;;
49834;SDS011;35729;52.090;13.162;2023-12-14T10:19:17;20.70;;;14.27;;
49834;SDS011;35729;52.090;13.162;2023-12-14T10:21:46;25.20;;;14.57;;
49834;SDS011;35729;52.090;13.162;2023-12-14T10:24:16;20.27;;;14.07;;
49834;SDS011;35729;52.090;13.162;2023-12-14T10:26:47;24.15;;;14.18;;
49834;SDS011;35729;52.090;13.162;2023-12-14T10:29:17;24.33;;;15.95;;
49834;SDS011;35729;52.090;13.162;2023-12-14T10:31:46;23.58;;;14.35;;
49834;SDS011;35729;52.090;13.162;2023-12-14T10:34:16;22.73;;;15.55;;
49834;SDS011;35729;52.090;13.162;2023-12-14T10:36:45;20.85;;;14.43;;
49834;SDS011;35729;52.090;13.162;2023-12-14T10:39:14;23.35;;;15.50;;
49834;SDS011;35729;52.090;13.162;2023-12-14T10:41:43;22.60;;;15.70;;
49834;SDS011;35729;52.090;13.162;2023-12-14T10:44:19;25.75;;;16.45;;
49834;SDS011;35729;52.090;13.162;2023-12-14T10:46:49;25.02;;;14.82;;
49834;SDS011;35729;52.090;13.162;2023-12-14T10:49:29;23.70;;;16.10;;
49834;SDS011;35729;52.090;13.162;2023-12-14T10:52:00;24.45;;;16.63;;
49834;SDS011;35729;52.090;13.162;2023-12-14T10:54:31;23.33;;;15.52;;
49834;SDS011;35729;52.090;13.162;2023-12-14T10:57:05;23.65;;;14.65;;
49834;SDS011;35729;52.090;13.162;2023-12-14T10:59:34;24.02;;;15.73;;
49834;SDS011;35729;52.090;13.162;2023-12-14T11:02:06;25.73;;;16.20;;
49834;SDS011;35729;52.090;13.162;2023-12-14T11:10:11;23.65;;;16.15;;
49834;SDS011;35729;52.090;13.162;2023-12-14T11:12:52;25.73;;;15.55;;
49834;SDS011;35729;52.090;13.162;2023-12-14T11:15:25;24.92;;;16.10;;
49834;SDS011;35729;52.090;13.162;2023-12-14T11:20:56;27.85;;;16.20;;
49834;SDS011;35729;52.090;13.162;2023-12-14T11:23:27;26.00;;;15.48;;
49834;SDS011;35729;52.090;13.162;2023-12-14T11:26:00;27.30;;;15.60;;
49834;SDS011;35729;52.090;13.162;2023-12-14T11:28:36;27.88;;;15.40;;
49834;SDS011;35729;52.090;13.162;2023-12-14T11:31:09;29.77;;;15.93;;
49834;SDS011;35729;52.090;13.162;2023-12-14T11:33:45;26.38;;;15.48;;
49834;SDS011;35729;52.090;13.162;2023-12-14T11:36:21;26.88;;;15.90;;
49834;SDS011;35729;52.090;13.162;2023-12-14T11:38:50;27.90;;;16.40;;
49834;SDS011;35729;52.090;13.162;2023-12-14T11:41:26;25.13;;;15.27;;
49834;SDS011;35729;52.090;13.162;2023-12-14T11:43:59;25.80;;;15.70;;
49834;SDS011;35729;52.090;13.162;2023-12-14T11:46:28;26.02;;;14.63;;
49834;SDS011;35729;52.090;13.162;2023-12-14T11:48:57;27.70;;;15.82;;
49834;SDS011;35729;52.090;13.162;2023-12-14T11:51:28;32.78;;;17.40;;
49834;SDS011;35729;52.090;13.162;2023-12-14T11:53:57;29.58;;;15.88;;
49834;SDS011;35729;52.090;13.162;2023-12-14T11:56:28;34.30;;;18.00;;
49834;SDS011;35729;52.090;13.162;2023-12-14T11:58:59;38.47;;;17.35;;
49834;SDS011;35729;52.090;13.162;2023-12-14T12:01:28;31.95;;;17.38;;
49834;SDS011;35729;52.090;13.162;2023-12-14T12:04:03;31.27;;;17.73;;
49834;SDS011;35729;52.090;13.162;2023-12-14T12:06:36;35.47;;;18.05;;
49834;SDS011;35729;52.090;13.162;2023-12-14T12:09:05;31.45;;;17.90;;
49834;SDS011;35729;52.090;13.162;2023-12-14T12:11:36;36.28;;;18.88;;
49834;SDS011;35729;52.090;13.162;2023-12-14T12:14:07;37.20;;;19.25;;
49834;SDS011;35729;52.090;13.162;2023-12-14T12:16:35;38.53;;;19.98;;
49834;SDS011;35729;52.090;13.162;2023-12-14T12:19:04;33.35;;;18.75;;
49834;SDS011;35729;52.090;13.162;2023-12-14T12:21:32;35.30;;;20.15;;
49834;SDS011;35729;52.090;13.162;2023-12-14T12:24:01;39.35;;;18.70;;
49834;SDS011;35729;52.090;13.162;2023-12-14T12:26:29;38.25;;;19.15;;
49834;SDS011;35729;52.090;13.162;2023-12-14T12:28:58;35.30;;;18.48;;
49834;SDS011;35729;52.090;13.162;2023-12-14T12:31:31;40.42;;;19.60;;
49834;SDS011;35729;52.090;13.162;2023-12-14T12:33:59;33.92;;;17.17;;
49834;SDS011;35729;52.090;13.162;2023-12-14T12:36:28;33.83;;;17.95;;
49834;SDS011;35729;52.090;13.162;2023-12-14T12:38:56;35.42;;;19.23;;
49834;SDS011;35729;52.090;13.162;2023-12-14T12:41:25;34.33;;;18.85;;
49834;SDS011;35729;52.090;13.162;2023-12-14T12:43:53;39.03;;;18.55;;
49834;SDS011;35729;52.090;13.162;2023-12-14T12:46:22;35.88;;;19.40;;
49834;SDS011;35729;52.090;13.162;2023-12-14T12:48:53;38.28;;;18.45;;
49834;SDS011;35729;52.090;13.162;2023-12-14T12:51:22;38.20;;;18.42;;
49834;SDS011;35729;52.090;13.162;2023-12-14T12:53:50;41.35;;;19.08;;
49834;SDS011;35729;52.090;13.162;2023-12-14T12:56:19;38.20;;;19.33;;
49834;SDS011;35729;52.090;13.162;2023-12-14T12:58:47;37.47;;;19.83;;
49834;SDS011;35729;52.090;13.162;2023-12-14T13:01:18;38.75;;;18.48;;
49834;SDS011;35729;52.090;13.162;2023-12-14T13:03:48;38.47;;;18.17;;
49834;SDS011;35729;52.090;13.162;2023-12-14T13:06:23;38.50;;;19.95;;
49834;SDS011;35729;52.090;13.162;2023-12-14T13:08:53;37.42;;;18.52;;
49834;SDS011;35729;52.090;13.162;2023-12-14T13:11:21;36.33;;;18.65;;
49834;SDS011;35729;52.090;13.162;2023-12-14T13:13:50;37.63;;;19.85;;
49834;SDS011;35729;52.090;13.162;2023-12-14T13:16:18;41.13;;;19.98;;
49834;SDS011;35729;52.090;13.162;2023-12-14T13:18:47;42.20;;;19.95;;
49834;SDS011;35729;52.090;13.162;2023-12-14T13:21:18;38.67;;;19.17;;
49834;SDS011;35729;52.090;13.162;2023-12-14T13:23:47;44.58;;;20.67;;
49834;SDS011;35729;52.090;13.162;2023-12-14T13:26:16;41.95;;;20.27;;
49834;SDS011;35729;52.090;13.162;2023-12-14T13:28:44;48.53;;;23.10;;
49834;SDS011;35729;52.090;13.162;2023-12-14T13:31:13;45.95;;;22.20;;
49834;SDS011;35729;52.090;13.162;2023-12-14T13:33:41;40.08;;;19.38;;
49834;SDS011;35729;52.090;13.162;2023-12-14T13:36:10;39.22;;;18.63;;
49834;SDS011;35729;52.090;13.162;2023-12-14T13:38:41;42.70;;;20.73;;
49834;SDS011;35729;52.090;13.162;2023-12-14T13:41:10;46.60;;;21.83;;
49834;SDS011;35729;52.090;13.162;2023-12-14T13:43:39;45.38;;;21.13;;
49834;SDS011;35729;52.090;13.162;2023-12-14T13:46:09;44.92;;;21.90;;
49834;SDS011;35729;52.090;13.162;2023-12-14T13:48:37;43.97;;;20.70;;
49834;SDS011;35729;52.090;13.162;2023-12-14T13:51:06;41.80;;;19.80;;
49834;SDS011;35729;52.090;13.162;2023-12-14T13:53:34;47.30;;;22.88;;
49834;SDS011;35729;52.090;13.162;2023-12-14T13:56:07;48.25;;;21.70;;
49834;SDS011;35729;52.090;13.162;2023-12-14T13:58:36;41.17;;;19.77;;
49834;SDS011;35729;52.090;13.162;2023-12-14T14:01:05;47.78;;;21.60;;
49834;SDS011;35729;52.090;13.162;2023-12-14T14:03:33;32.70;;;18.38;;
49834;SDS011;35729;52.090;13.162;2023-12-14T14:06:03;38.92;;;19.25;;
49834;SDS011;35729;52.090;13.162;2023-12-14T14:08:32;37.05;;;19.20;;
49834;SDS011;35729;52.090;13.162;2023-12-14T14:11:00;34.50;;;19.20;;
49834;SDS011;35729;52.090;13.162;2023-12-14T14:13:32;42.33;;;19.63;;
49834;SDS011;35729;52.090;13.162;2023-12-14T14:16:01;39.15;;;20.02;;
49834;SDS011;35729;52.090;13.162;2023-12-14T14:18:30;41.88;;;19.85;;
49834;SDS011;35729;52.090;13.162;2023-12-14T14:20:58;40.50;;;20.40;;
49834;SDS011;35729;52.090;13.162;2023-12-14T14:23:27;40.08;;;19.02;;
49834;SDS011;35729;52.090;13.162;2023-12-14T14:25:56;34.78;;;17.52;;
49834;SDS011;35729;52.090;13.162;2023-12-14T14:28:24;39.75;;;19.02;;
49834;SDS011;35729;52.090;13.162;2023-12-14T14:30:55;36.03;;;18.15;;